logo
Search for airport 
image banner adimage banner adimage banner ad
image banner ad

C51 - Kili

Located in Kili Island, Marshall Islands

ICAO - C51, IATA - KIO

Data provided by Airmate  

General information

Coordinates: N5°38'37" E169°7'28"
Elevation is 5 feet MSL.
Magnetic variation is 10° East
View others Airports in Kili

Operational data

Special qualification required
Current time UTC:
Current local time:
Weather at : - ( 0 km )
METAR: PAKH 152006Z AUTO 21007KT 5SM -RA BR SCT004 BKN010 OVC017 09/09 A2984 RMK AO2 CIG 007V012 PNO $
View NOTAMs / SUP AIP / TFR affecting this airport [VIEW]
Communications frequencies: [VIEW]

Runways:

RWY identifierQFULength (ft)Width (ft)SurfaceLDA (ft)
044400100GRAVEL
224400100GRAVEL

Airport contact information

Address: Kili Island Marshall Islands

Satellite view of C51